Time;durP1;ratioP1;P1;durP2;ratioP2;P2;SDS_P1;SDS_P2;PMS_P1;PMS_P2;Temp;Humidity;BMP_temperature;BMP_pressure;BME280_temperature;BME280_humidity;BME280_pressure;Samples;Min_cycle;Max_cycle;Signal;HPM_P1;HPM_P2
2021/05/10 00:02:22;;;;;;;4.10;1.92;;;;;;;;;;5110273;27;20377;-74
2021/05/10 00:04:48;;;;;;;3.50;1.95;;;;;;;;;;5110554;28;20541;-74
2021/05/10 00:07:14;;;;;;;3.70;2.05;;;;;;;;;;5110716;28;20099;-73
2021/05/10 00:11:22;;;;;;;3.33;1.75;;;;;;;;;;5070237;28;20383;-74
2021/05/10 00:13:50;;;;;;;5.50;2.63;;;;;;;;;;5070033;28;20504;-74
2021/05/10 00:16:16;;;;;;;2.92;1.88;;;;;;;;;;5068173;28;20064;-74
2021/05/10 00:21:31;;;;;;;3.40;1.70;;;;;;;;;;5110604;27;20893;-74
2021/05/10 00:23:57;;;;;;;3.28;2.00;;;;;;;;;;5110159;28;20020;-75
2021/05/10 00:26:24;;;;;;;4.38;1.85;;;;;;;;;;5111142;28;20020;-74
2021/05/10 00:30:32;;;;;;;3.85;2.03;;;;;;;;;;5110114;27;20434;-75
2021/05/10 00:32:58;;;;;;;5.18;1.85;;;;;;;;;;5110449;28;20376;-75
2021/05/10 00:37:13;;;;;;;4.15;2.05;;;;;;;;;;5110669;27;20404;-75
2021/05/10 00:41:52;;;;;;;5.28;2.05;;;;;;;;;;5110538;27;20876;-74
2021/05/10 00:48:24;;;;;;;2.85;1.90;;;;;;;;;;5110656;27;20780;-74
2021/05/10 00:50:50;;;;;;;7.50;3.22;;;;;;;;;;5108814;28;20387;-75
2021/05/10 00:53:16;;;;;;;6.75;2.38;;;;;;;;;;5110557;28;20016;-74
2021/05/10 00:56:21;;;;;;;7.53;2.50;;;;;;;;;;5110540;27;20654;-75
2021/05/10 00:58:48;;;;;;;6.38;2.05;;;;;;;;;;5108810;28;20024;-74
2021/05/10 01:01:14;;;;;;;4.35;2.33;;;;;;;;;;5109089;28;20516;-74
2021/05/10 01:04:10;;;;;;;4.63;2.13;;;;;;;;;;5110645;27;20369;-73
2021/05/10 01:06:36;;;;;;;3.35;2.00;;;;;;;;;;5110269;28;20026;-75
2021/05/10 01:09:02;;;;;;;6.85;2.30;;;;;;;;;;5109313;28;20028;-75
2021/05/10 01:11:28;;;;;;;5.43;2.25;;;;;;;;;;5110368;28;20023;-75
2021/05/10 01:13:55;;;;;;;3.58;2.03;;;;;;;;;;5110012;28;20052;-73
2021/05/10 01:20:47;;;;;;;11.02;3.78;;;;;;;;;;5110234;27;20384;-73
2021/05/10 01:23:14;;;;;;;6.65;3.25;;;;;;;;;;5109563;28;20020;-73
2021/05/10 01:27:43;;;;;;;5.80;2.78;;;;;;;;;;5049896;28;20381;-76
2021/05/10 01:30:16;;;;;;;5.70;2.30;;;;;;;;;;5050008;28;20029;-75
2021/05/10 01:32:42;;;;;;;5.20;2.80;;;;;;;;;;5049906;28;20063;-74
2021/05/10 01:35:52;;;;;;;4.53;2.25;;;;;;;;;;5111115;27;20385;-75
2021/05/10 01:38:39;;;;;;;4.55;2.80;;;;;;;;;;5110553;27;20385;-74
2021/05/10 01:42:06;;;;;;;5.28;2.35;;;;;;;;;;5110177;27;20438;-74
2021/05/10 01:45:42;;;;;;;5.22;2.85;;;;;;;;;;5114909;27;1148711;-74
2021/05/10 01:50:18;;;;;;;4.03;2.22;;;;;;;;;;5110424;27;20388;-74
2021/05/10 01:53:21;;;;;;;6.78;2.55;;;;;;;;;;5070101;28;20383;-74
2021/05/10 01:55:48;;;;;;;4.13;2.47;;;;;;;;;;5069827;28;20029;-74
2021/05/10 01:58:14;;;;;;;6.28;2.45;;;;;;;;;;5068570;28;20089;-75
2021/05/10 02:00:41;;;;;;;5.25;2.38;;;;;;;;;;5068653;28;20017;-78
2021/05/10 02:03:09;;;;;;;8.38;2.75;;;;;;;;;;5069471;28;20021;-78
2021/05/10 02:05:35;;;;;;;5.07;2.33;;;;;;;;;;5068884;28;20154;-75
2021/05/10 02:08:02;;;;;;;4.10;2.17;;;;;;;;;;5069558;28;20028;-76
2021/05/10 02:11:20;;;;;;;5.18;2.58;;;;;;;;;;5110751;27;20749;-74
2021/05/10 02:13:46;;;;;;;4.88;2.17;;;;;;;;;;5110987;28;20064;-74
2021/05/10 02:16:13;;;;;;;4.45;2.47;;;;;;;;;;5110274;28;20016;-74
2021/05/10 02:18:39;;;;;;;3.53;1.83;;;;;;;;;;5110477;28;20028;-74
2021/05/10 02:21:05;;;;;;;3.22;1.80;;;;;;;;;;5110410;28;20417;-74
2021/05/10 02:23:32;;;;;;;6.28;2.65;;;;;;;;;;5110088;28;20487;-74
2021/05/10 02:26:00;;;;;;;5.32;2.65;;;;;;;;;;5110533;28;20038;-74
2021/05/10 02:28:27;;;;;;;5.25;2.00;;;;;;;;;;5110238;28;20011;-74
2021/05/10 02:30:54;;;;;;;6.80;2.47;;;;;;;;;;5109844;28;20032;-74
2021/05/10 02:33:30;;;;;;;5.55;2.33;;;;;;;;;;5110135;28;20028;-74
2021/05/10 02:35:57;;;;;;;6.25;2.70;;;;;;;;;;5110526;28;20080;-74
2021/05/10 02:38:23;;;;;;;4.28;2.25;;;;;;;;;;5109661;28;20019;-75
2021/05/10 02:40:50;;;;;;;4.63;2.33;;;;;;;;;;5109925;28;20020;-74
2021/05/10 02:43:17;;;;;;;3.70;2.00;;;;;;;;;;5109519;28;20019;-75
2021/05/10 02:45:44;;;;;;;4.00;2.35;;;;;;;;;;5110005;28;20024;-74
2021/05/10 02:48:10;;;;;;;3.38;2.13;;;;;;;;;;5109994;28;20384;-74
2021/05/10 02:50:36;;;;;;;4.93;2.38;;;;;;;;;;5109368;28;20032;-74
2021/05/10 02:53:03;;;;;;;4.35;2.70;;;;;;;;;;5109881;28;20464;-74
2021/05/10 02:55:29;;;;;;;3.53;2.20;;;;;;;;;;5110056;28;20032;-75
2021/05/10 02:57:55;;;;;;;4.55;2.20;;;;;;;;;;5109392;28;20047;-75
2021/05/10 03:00:23;;;;;;;6.10;2.38;;;;;;;;;;5109968;28;20460;-75
2021/05/10 03:02:49;;;;;;;4.55;2.40;;;;;;;;;;5108443;28;20073;-75
2021/05/10 03:05:16;;;;;;;6.15;2.40;;;;;;;;;;5109183;28;20050;-74
2021/05/10 03:07:42;;;;;;;5.47;2.55;;;;;;;;;;5109523;28;20020;-75
2021/05/10 03:10:10;;;;;;;4.90;2.50;;;;;;;;;;5109056;28;20056;-75
2021/05/10 03:12:37;;;;;;;5.53;2.35;;;;;;;;;;5109044;28;20023;-74
2021/05/10 03:15:04;;;;;;;6.38;2.60;;;;;;;;;;5109412;28;20106;-75
2021/05/10 03:17:30;;;;;;;7.63;2.78;;;;;;;;;;5109655;28;20020;-73
2021/05/10 03:19:56;;;;;;;6.38;2.65;;;;;;;;;;5108907;28;20526;-74
2021/05/10 03:22:23;;;;;;;3.38;2.10;;;;;;;;;;5096025;28;20028;-74
2021/05/10 03:24:49;;;;;;;3.20;2.17;;;;;;;;;;5094465;28;20028;-74
2021/05/10 03:27:15;;;;;;;3.63;2.00;;;;;;;;;;5095181;28;20012;-75
2021/05/10 03:29:41;;;;;;;6.30;2.95;;;;;;;;;;5095356;28;20475;-74
2021/05/10 03:32:07;;;;;;;5.85;3.08;;;;;;;;;;5095490;28;20484;-75
2021/05/10 03:34:33;;;;;;;7.63;2.65;;;;;;;;;;5094957;28;20107;-75
2021/05/10 03:37:00;;;;;;;9.30;3.10;;;;;;;;;;5095431;28;20480;-76
2021/05/10 03:39:26;;;;;;;9.20;3.30;;;;;;;;;;5094871;28;20035;-76
2021/05/10 03:41:52;;;;;;;14.07;6.30;;;;;;;;;;5095465;28;20100;-76
2021/05/10 03:44:18;;;;;;;5.55;2.95;;;;;;;;;;5095423;28;20032;-76
2021/05/10 03:46:44;;;;;;;5.45;2.85;;;;;;;;;;5093502;28;20070;-75
2021/05/10 03:49:10;;;;;;;5.05;2.55;;;;;;;;;;5093977;28;20024;-75
2021/05/10 03:51:37;;;;;;;5.85;2.78;;;;;;;;;;5095166;28;20024;-75
2021/05/10 03:54:03;;;;;;;7.72;2.70;;;;;;;;;;5094670;28;20480;-76
2021/05/10 03:56:29;;;;;;;6.72;2.72;;;;;;;;;;5094959;28;20040;-76
2021/05/10 03:58:55;;;;;;;7.40;2.72;;;;;;;;;;5095000;28;20044;-76
2021/05/10 04:01:22;;;;;;;4.88;2.88;;;;;;;;;;5094862;28;20028;-75
2021/05/10 04:04:15;;;;;;;4.35;2.22;;;;;;;;;;5093973;28;20107;-75
2021/05/10 04:14:34;;;;;;;6.47;3.97;;;;;;;;;;5094322;28;20031;-76
2021/05/10 04:17:00;;;;;;;7.00;2.30;;;;;;;;;;5094663;28;20031;-75
2021/05/10 04:19:26;;;;;;;6.82;3.00;;;;;;;;;;5093350;28;20020;-75
2021/05/10 04:21:52;;;;;;;8.55;3.17;;;;;;;;;;5094299;28;20028;-75
2021/05/10 04:24:18;;;;;;;12.75;4.38;;;;;;;;;;5094633;28;20039;-76
2021/05/10 04:26:45;;;;;;;6.13;2.92;;;;;;;;;;5094523;28;20031;-76
2021/05/10 04:29:11;;;;;;;5.82;2.88;;;;;;;;;;5092607;28;20028;-76
2021/05/10 04:31:37;;;;;;;4.82;2.53;;;;;;;;;;5094411;28;20476;-76
2021/05/10 04:34:03;;;;;;;6.00;2.40;;;;;;;;;;5091965;28;20027;-75
2021/05/10 04:36:30;;;;;;;4.72;2.80;;;;;;;;;;5093911;28;20024;-76
2021/05/10 04:38:56;;;;;;;6.90;3.15;;;;;;;;;;5094230;28;20027;-76
2021/05/10 04:41:22;;;;;;;7.95;2.90;;;;;;;;;;5094611;28;20031;-76
2021/05/10 04:43:48;;;;;;;10.48;4.35;;;;;;;;;;5094008;28;20093;-76
2021/05/10 04:46:14;;;;;;;10.40;2.08;;;;;;;;;;5094178;28;20028;-75
2021/05/10 04:48:42;;;;;;;5.95;3.00;;;;;;;;;;5092799;28;20020;-75
2021/05/10 04:52:08;;;;;;;7.18;3.08;;;;;;;;;;5110628;27;20801;-75
2021/05/10 04:54:34;;;;;;;4.20;2.38;;;;;;;;;;5110481;28;20360;-74
2021/05/10 04:57:00;;;;;;;7.28;2.70;;;;;;;;;;5110295;28;20085;-74
2021/05/10 04:59:26;;;;;;;7.35;2.40;;;;;;;;;;5108873;28;20023;-75
2021/05/10 05:01:52;;;;;;;7.20;2.70;;;;;;;;;;5110752;28;20434;-75
2021/05/10 05:04:19;;;;;;;5.13;2.83;;;;;;;;;;5110270;28;20024;-74
2021/05/10 05:06:55;;;;;;;10.25;3.83;;;;;;;;;;5110555;27;20381;-74
2021/05/10 05:09:21;;;;;;;7.28;3.60;;;;;;;;;;5110714;28;20039;-74
2021/05/10 05:13:07;;;;;;;6.75;3.00;;;;;;;;;;5110002;27;20456;-75
2021/05/10 05:15:33;;;;;;;9.63;3.55;;;;;;;;;;5104114;28;20107;-74
2021/05/10 05:18:00;;;;;;;8.48;3.88;;;;;;;;;;5106439;28;20034;-74
2021/05/10 05:22:09;;;;;;;8.02;3.75;;;;;;;;;;5106876;27;20388;-74
2021/05/10 05:25:35;;;;;;;9.00;3.58;;;;;;;;;;5106285;27;20437;-75
2021/05/10 05:28:01;;;;;;;5.90;2.90;;;;;;;;;;5105280;28;20035;-74
2021/05/10 05:33:29;;;;;;;6.88;3.28;;;;;;;;;;5108312;27;20446;-74
2021/05/10 05:40:35;;;;;;;7.60;3.40;;;;;;;;;;5108769;27;20392;-75
2021/05/10 05:43:02;;;;;;;7.97;3.38;;;;;;;;;;5109416;28;20042;-74
2021/05/10 05:45:28;;;;;;;8.82;3.60;;;;;;;;;;5108007;28;20012;-74
2021/05/10 05:50:15;;;;;;;7.90;3.22;;;;;;;;;;5110422;27;20377;-75
2021/05/10 05:52:41;;;;;;;9.75;3.58;;;;;;;;;;5109221;28;20034;-74
2021/05/10 05:55:09;;;;;;;5.45;2.40;;;;;;;;;;5106243;28;20522;-74
2021/05/10 05:57:35;;;;;;;4.78;2.45;;;;;;;;;;5110214;28;20024;-75
2021/05/10 06:00:02;;;;;;;5.85;2.83;;;;;;;;;;5107818;28;20048;-74
2021/05/10 06:02:28;;;;;;;6.75;2.95;;;;;;;;;;5103461;28;20026;-75
2021/05/10 06:04:55;;;;;;;8.35;3.33;;;;;;;;;;5109875;28;20159;-74
2021/05/10 06:07:21;;;;;;;5.18;2.53;;;;;;;;;;5109523;28;20020;-73
2021/05/10 06:12:19;;;;;;;6.18;2.35;;;;;;;;;;5109547;27;20385;-73
2021/05/10 06:17:50;;;;;;;6.95;2.53;;;;;;;;;;5109064;27;20380;-72
2021/05/10 06:20:17;;;;;;;5.20;2.85;;;;;;;;;;5109117;28;20116;-73
2021/05/10 06:24:46;;;;;;;6.65;2.90;;;;;;;;;;5110166;27;20862;-74
2021/05/10 06:27:12;;;;;;;9.02;2.72;;;;;;;;;;5108253;28;20043;-74
2021/05/10 06:29:38;;;;;;;7.65;2.67;;;;;;;;;;5108944;28;20104;-74
2021/05/10 06:32:04;;;;;;;4.28;2.10;;;;;;;;;;5109622;28;20533;-74
2021/05/10 06:34:30;;;;;;;4.45;2.22;;;;;;;;;;5110188;28;20085;-73
2021/05/10 06:36:57;;;;;;;10.50;2.83;;;;;;;;;;5108560;28;20360;-72
2021/05/10 06:39:24;;;;;;;5.88;2.72;;;;;;;;;;5107500;28;20032;-72
2021/05/10 06:41:50;;;;;;;5.03;2.10;;;;;;;;;;5103165;28;20119;-73
2021/05/10 06:44:16;;;;;;;3.40;1.80;;;;;;;;;;5109917;28;20028;-74
2021/05/10 06:46:43;;;;;;;7.80;1.90;;;;;;;;;;5108857;28;20019;-74
2021/05/10 06:49:09;;;;;;;6.30;2.20;;;;;;;;;;5109859;28;20456;-76
2021/05/10 06:51:35;;;;;;;6.13;2.47;;;;;;;;;;5109770;28;20055;-75
2021/05/10 06:56:48;;;;;;;4.25;2.00;;;;;;;;;;5110421;27;20381;-74
2021/05/10 06:59:14;;;;;;;7.28;2.10;;;;;;;;;;5109246;28;20035;-75
2021/05/10 07:05:37;;;;;;;5.13;2.30;;;;;;;;;;5107518;27;20438;-73
2021/05/10 07:08:47;;;;;;;5.60;2.47;;;;;;;;;;5104529;27;20377;-73
2021/05/10 07:11:14;;;;;;;4.75;2.38;;;;;;;;;;5107816;28;20024;-75
2021/05/10 07:13:40;;;;;;;2.38;1.90;;;;;;;;;;5110498;28;20426;-74
2021/05/10 07:16:07;;;;;;;3.78;2.05;;;;;;;;;;5107929;28;20024;-76
2021/05/10 07:18:34;;;;;;;5.43;2.40;;;;;;;;;;5109993;28;20418;-76
2021/05/10 07:21:58;;;;;;;5.20;2.50;;;;;;;;;;5049895;28;20377;-74
2021/05/10 07:24:25;;;;;;;6.65;2.53;;;;;;;;;;5047188;28;20033;-76
2021/05/10 07:26:51;;;;;;;4.47;2.30;;;;;;;;;;5048741;28;20433;-77
2021/05/10 07:29:17;;;;;;;5.82;2.30;;;;;;;;;;5048767;28;20031;-76
2021/05/10 07:31:43;;;;;;;6.90;2.42;;;;;;;;;;5049067;28;20535;-75
2021/05/10 07:34:09;;;;;;;8.00;3.03;;;;;;;;;;5049779;28;20075;-75
2021/05/10 07:36:36;;;;;;;3.78;1.88;;;;;;;;;;5049765;28;20091;-74
2021/05/10 07:39:02;;;;;;;6.75;2.60;;;;;;;;;;5049163;28;20025;-75
2021/05/10 07:41:28;;;;;;;5.65;1.80;;;;;;;;;;5049149;28;20078;-76
2021/05/10 07:43:55;;;;;;;5.85;2.40;;;;;;;;;;5046519;28;20022;-75
2021/05/10 07:46:21;;;;;;;4.70;2.15;;;;;;;;;;5047427;28;20045;-75
2021/05/10 07:48:47;;;;;;;5.13;2.00;;;;;;;;;;5046163;28;20378;-75
2021/05/10 07:51:15;;;;;;;3.47;1.90;;;;;;;;;;5046514;28;20053;-75
2021/05/10 07:53:41;;;;;;;3.72;2.03;;;;;;;;;;5047567;28;20013;-75
2021/05/10 07:56:07;;;;;;;4.93;2.22;;;;;;;;;;5047597;28;20035;-76
2021/05/10 07:58:36;;;;;;;4.60;2.17;;;;;;;;;;5047664;28;20050;-76
2021/05/10 08:01:04;;;;;;;6.57;2.08;;;;;;;;;;5047288;28;20486;-76
2021/05/10 08:03:30;;;;;;;3.80;2.10;;;;;;;;;;5044854;28;20091;-76
2021/05/10 08:05:59;;;;;;;6.85;1.80;;;;;;;;;;5049443;28;20025;-76
2021/05/10 08:08:26;;;;;;;3.25;2.13;;;;;;;;;;5048889;28;20040;-75
2021/05/10 08:10:52;;;;;;;6.72;2.13;;;;;;;;;;5049160;28;20021;-76
2021/05/10 08:13:19;;;;;;;4.38;2.72;;;;;;;;;;5049105;28;20051;-75
2021/05/10 08:15:45;;;;;;;5.22;2.28;;;;;;;;;;5048644;28;20113;-76
2021/05/10 08:18:12;;;;;;;3.63;2.10;;;;;;;;;;5048833;28;20022;-75
2021/05/10 08:20:42;;;;;;;2.67;1.83;;;;;;;;;;5047536;28;20096;-76
2021/05/10 08:23:08;;;;;;;5.18;2.42;;;;;;;;;;5048591;28;20034;-77
2021/05/10 08:25:34;;;;;;;4.22;2.35;;;;;;;;;;5047851;28;20029;-76
2021/05/10 08:28:01;;;;;;;4.97;2.42;;;;;;;;;;5044085;28;20025;-76
2021/05/10 08:30:27;;;;;;;3.33;2.28;;;;;;;;;;5047757;28;20105;-76
2021/05/10 08:34:50;;;;;;;4.78;2.45;;;;;;;;;;5172563;27;20185;-75
2021/05/10 08:37:20;;;;;;;3.33;1.80;;;;;;;;;;5148422;27;20391;-76
2021/05/10 08:39:46;;;;;;;2.97;1.92;;;;;;;;;;5132960;27;20059;-76
2021/05/10 08:42:12;;;;;;;4.40;2.17;;;;;;;;;;5151217;27;20041;-77
2021/05/10 08:44:38;;;;;;;3.35;1.90;;;;;;;;;;5132481;27;20075;-76
2021/05/10 08:47:05;;;;;;;5.00;2.13;;;;;;;;;;5151103;27;20364;-76
2021/05/10 08:49:31;;;;;;;3.47;1.73;;;;;;;;;;5150450;27;20528;-76
2021/05/10 08:51:57;;;;;;;3.08;1.92;;;;;;;;;;5150947;27;20031;-74
2021/05/10 08:56:14;;;;;;;4.18;2.22;;;;;;;;;;5130368;27;20172;-75
2021/05/10 09:00:50;;;;;;;3.53;1.90;;;;;;;;;;5068885;28;20467;-75
2021/05/10 09:03:16;;;;;;;7.28;2.17;;;;;;;;;;5069010;28;20477;-74
2021/05/10 09:05:46;;;;;;;4.50;1.67;;;;;;;;;;5069188;28;20035;-75
2021/05/10 09:08:13;;;;;;;4.07;2.35;;;;;;;;;;5067970;28;20116;-74
2021/05/10 09:11:53;;;;;;;5.45;3.13;;;;;;;;;;5108093;27;20783;-75
2021/05/10 09:14:33;;;;;;;4.75;2.65;;;;;;;;;;5109123;28;20037;-74
2021/05/10 09:16:59;;;;;;;5.30;2.40;;;;;;;;;;5110261;28;20024;-77
2021/05/10 09:19:44;;;;;;;4.82;2.13;;;;;;;;;;5107558;28;20020;-74
2021/05/10 09:22:10;;;;;;;3.70;1.83;;;;;;;;;;5107627;28;20031;-76
2021/05/10 09:24:50;;;;;;;5.03;1.98;;;;;;;;;;5106980;28;20026;-75
2021/05/10 09:27:22;;;;;;;5.03;2.60;;;;;;;;;;5102096;28;20024;-76
2021/05/10 09:29:49;;;;;;;5.15;2.20;;;;;;;;;;5103356;28;20061;-75
2021/05/10 09:32:25;;;;;;;8.77;3.08;;;;;;;;;;5108317;28;20027;-74
2021/05/10 09:35:39;;;;;;;3.90;2.28;;;;;;;;;;5067639;28;20384;-75
2021/05/10 09:38:40;;;;;;;4.80;2.35;;;;;;;;;;5107780;27;21120;-76
2021/05/10 09:41:07;;;;;;;7.28;2.88;;;;;;;;;;5108714;28;20060;-74
2021/05/10 09:43:42;;;;;;;10.60;2.38;;;;;;;;;;5106483;28;20651;-75
2021/05/10 09:46:12;;;;;;;3.80;1.95;;;;;;;;;;5106321;28;20400;-74
2021/05/10 09:48:40;;;;;;;5.72;2.65;;;;;;;;;;5108391;28;20481;-75
2021/05/10 09:51:08;;;;;;;3.95;2.20;;;;;;;;;;5109597;28;20024;-75
2021/05/10 09:53:36;;;;;;;4.93;2.15;;;;;;;;;;5108339;28;20048;-75
2021/05/10 09:56:03;;;;;;;3.30;2.03;;;;;;;;;;5109673;28;20069;-74
2021/05/10 09:58:41;;;;;;;3.58;2.00;;;;;;;;;;5109684;28;20028;-73
2021/05/10 10:01:08;;;;;;;5.20;2.20;;;;;;;;;;5109510;28;20032;-74
2021/05/10 10:03:37;;;;;;;3.50;1.90;;;;;;;;;;5109754;28;20099;-76
2021/05/10 10:06:10;;;;;;;4.30;2.38;;;;;;;;;;5109593;28;20055;-75
2021/05/10 10:08:37;;;;;;;3.42;1.90;;;;;;;;;;5109298;28;20027;-74
2021/05/10 10:11:04;;;;;;;3.63;2.05;;;;;;;;;;5109547;28;20038;-74
2021/05/10 10:15:32;;;;;;;4.45;2.22;;;;;;;;;;5109500;27;20577;-74
2021/05/10 10:18:01;;;;;;;3.45;1.80;;;;;;;;;;5107530;28;20036;-74
2021/05/10 10:21:20;;;;;;;4.00;2.53;;;;;;;;;;5109056;27;20752;-72
2021/05/10 10:23:52;;;;;;;6.22;2.40;;;;;;;;;;5110102;28;20036;-74
2021/05/10 10:26:19;;;;;;;5.57;1.85;;;;;;;;;;5108805;28;20434;-75
2021/05/10 10:29:26;;;;;;;3.72;1.52;;;;;;;;;;5109817;27;20377;-74
2021/05/10 10:31:53;;;;;;;3.88;1.83;;;;;;;;;;5109628;28;20023;-75
2021/05/10 10:35:16;;;;;;;3.60;1.88;;;;;;;;;;5067605;28;20426;-75
2021/05/10 10:37:42;;;;;;;4.55;2.42;;;;;;;;;;5067867;28;20049;-75
2021/05/10 10:40:21;;;;;;;4.93;1.77;;;;;;;;;;5067564;28;20173;-75
2021/05/10 10:42:48;;;;;;;4.13;1.85;;;;;;;;;;5067384;28;20029;-76
2021/05/10 10:45:21;;;;;;;2.40;1.55;;;;;;;;;;5067822;28;20547;-76
2021/05/10 10:47:57;;;;;;;4.65;2.08;;;;;;;;;;5068544;28;20029;-74
2021/05/10 10:50:25;;;;;;;4.78;2.20;;;;;;;;;;5069295;28;20013;-73
2021/05/10 10:52:52;;;;;;;2.78;1.48;;;;;;;;;;5069467;28;20024;-74
2021/05/10 10:55:24;;;;;;;3.13;1.83;;;;;;;;;;5069199;28;20100;-72
2021/05/10 10:57:52;;;;;;;4.88;2.10;;;;;;;;;;5068626;28;20021;-77
2021/05/10 11:00:19;;;;;;;3.13;1.67;;;;;;;;;;5069771;28;20051;-72
2021/05/10 11:04:20;;;;;;;5.35;1.95;;;;;;;;;;5109758;27;20434;-75
2021/05/10 11:06:52;;;;;;;8.57;2.67;;;;;;;;;;5108534;28;20020;-77
2021/05/10 11:09:38;;;;;;;4.15;1.67;;;;;;;;;;5108660;28;20024;-75
2021/05/10 11:12:04;;;;;;;4.55;2.25;;;;;;;;;;5108941;28;20030;-75
2021/05/10 11:14:43;;;;;;;3.22;1.95;;;;;;;;;;5109111;28;20442;-74
2021/05/10 11:17:09;;;;;;;3.03;1.98;;;;;;;;;;5108493;28;20053;-74
2021/05/10 11:19:41;;;;;;;2.40;1.70;;;;;;;;;;5110080;28;20428;-74
2021/05/10 11:22:26;;;;;;;5.40;2.00;;;;;;;;;;5109277;28;20358;-75
2021/05/10 11:24:52;;;;;;;3.55;1.90;;;;;;;;;;5109945;28;20034;-75
2021/05/10 11:27:26;;;;;;;3.22;1.63;;;;;;;;;;5110104;28;20027;-76
2021/05/10 11:29:52;;;;;;;3.97;1.92;;;;;;;;;;5110308;28;20099;-76
2021/05/10 12:58:20;;;;;;;6.57;1.77;;;;;;;;;;3246693;28;22143;-72
2021/05/10 13:00:47;;;;;;;2.28;1.35;;;;;;;;;;5095066;28;20392;-78
2021/05/10 13:03:25;;;;;;;5.25;2.05;;;;;;;;;;5093195;28;20043;-76
2021/05/10 13:05:51;;;;;;;3.72;1.80;;;;;;;;;;5094786;28;20423;-76
2021/05/10 13:08:35;;;;;;;4.18;1.75;;;;;;;;;;5097152;28;20476;-77
2021/05/10 13:11:01;;;;;;;1.65;1.25;;;;;;;;;;5094218;28;20124;-77
2021/05/10 13:13:43;;;;;;;4.07;1.75;;;;;;;;;;5094578;28;20488;-76
2021/05/10 13:32:51;;;;;;;4.78;1.50;;;;;;;;;;5094478;28;20408;-76
2021/05/10 13:35:57;;;;;;;2.45;1.42;;;;;;;;;;5094267;28;20538;-76
2021/05/10 13:38:23;;;;;;;2.47;1.48;;;;;;;;;;5031317;28;20032;-77
2021/05/10 13:40:50;;;;;;;2.95;1.70;;;;;;;;;;5078844;28;20036;-77
2021/05/10 13:43:27;;;;;;;2.50;1.55;;;;;;;;;;5093768;28;20036;-77
2021/05/10 13:45:53;;;;;;;3.63;2.00;;;;;;;;;;5093501;28;20353;-75
2021/05/10 13:48:19;;;;;;;4.47;1.58;;;;;;;;;;5093747;28;20109;-78
2021/05/10 13:50:46;;;;;;;4.60;1.85;;;;;;;;;;5093766;28;20028;-75
2021/05/10 13:53:12;;;;;;;3.75;1.52;;;;;;;;;;5093329;28;20099;-77
2021/05/10 13:55:38;;;;;;;5.22;1.33;;;;;;;;;;5092571;28;20046;-77
2021/05/10 13:58:04;;;;;;;3.13;1.60;;;;;;;;;;5092553;28;20032;-77
2021/05/10 14:00:30;;;;;;;2.75;1.73;;;;;;;;;;5092989;28;20040;-77
2021/05/10 14:02:56;;;;;;;2.83;1.40;;;;;;;;;;5093473;28;20057;-76
2021/05/10 14:05:23;;;;;;;5.15;1.88;;;;;;;;;;5093419;28;20039;-76
2021/05/10 14:07:49;;;;;;;2.60;1.77;;;;;;;;;;5093502;28;20430;-77
2021/05/10 14:10:16;;;;;;;3.35;1.50;;;;;;;;;;5093492;28;20027;-77
2021/05/10 14:12:42;;;;;;;3.83;1.60;;;;;;;;;;5093000;28;20108;-77
2021/05/10 14:15:10;;;;;;;4.88;1.30;;;;;;;;;;5093645;28;20095;-75
2021/05/10 14:17:38;;;;;;;3.95;1.45;;;;;;;;;;5093518;28;20020;-76
2021/05/10 14:20:05;;;;;;;4.35;1.63;;;;;;;;;;5093008;28;20024;-76
2021/05/10 14:22:31;;;;;;;4.50;1.48;;;;;;;;;;5093114;28;20024;-75
2021/05/10 14:24:57;;;;;;;4.57;1.45;;;;;;;;;;5091843;28;20492;-75
2021/05/10 14:27:23;;;;;;;3.05;1.50;;;;;;;;;;5092609;28;20028;-76
2021/05/10 14:29:50;;;;;;;3.13;1.60;;;;;;;;;;5091760;28;20047;-76
2021/05/10 14:32:16;;;;;;;3.75;1.42;;;;;;;;;;5092954;28;20155;-76
2021/05/10 14:34:42;;;;;;;3.22;1.42;;;;;;;;;;5092570;28;20430;-76
2021/05/10 14:37:08;;;;;;;2.47;1.52;;;;;;;;;;5092909;28;20016;-76
2021/05/10 14:39:34;;;;;;;5.00;1.77;;;;;;;;;;5093071;28;20132;-76
2021/05/10 14:42:01;;;;;;;2.20;1.35;;;;;;;;;;5092288;28;20095;-77
2021/05/10 14:44:27;;;;;;;2.08;1.70;;;;;;;;;;5092862;28;20078;-77
2021/05/10 14:46:54;;;;;;;2.60;1.30;;;;;;;;;;5092848;28;20445;-76
2021/05/10 14:49:20;;;;;;;2.95;1.50;;;;;;;;;;5092432;28;20052;-77
2021/05/10 14:51:48;;;;;;;4.60;1.58;;;;;;;;;;5091759;28;20020;-76
2021/05/10 14:54:14;;;;;;;2.95;1.73;;;;;;;;;;5091347;28;20034;-76
2021/05/10 14:56:42;;;;;;;3.65;1.73;;;;;;;;;;5092415;28;20051;-75
2021/05/10 14:59:09;;;;;;;3.95;1.63;;;;;;;;;;5092551;28;20114;-77
2021/05/10 15:01:35;;;;;;;3.55;1.90;;;;;;;;;;5092625;28;20551;-76
2021/05/10 15:04:01;;;;;;;2.83;1.33;;;;;;;;;;5092130;28;20040;-76
2021/05/10 15:06:27;;;;;;;2.90;1.20;;;;;;;;;;5092632;28;20107;-75
2021/05/10 15:08:54;;;;;;;2.97;1.27;;;;;;;;;;5092396;28;20027;-76
2021/05/10 15:11:20;;;;;;;3.22;1.35;;;;;;;;;;5092472;28;20073;-76
2021/05/10 15:13:49;;;;;;;1.77;1.42;;;;;;;;;;5092551;28;20031;-76
2021/05/10 15:16:15;;;;;;;1.90;1.30;;;;;;;;;;5090889;28;20075;-76
2021/05/10 15:18:46;;;;;;;2.63;1.30;;;;;;;;;;5091303;28;20025;-76
2021/05/10 15:21:13;;;;;;;2.17;1.40;;;;;;;;;;5092462;28;20013;-76
2021/05/10 15:23:39;;;;;;;2.03;1.20;;;;;;;;;;5090657;28;20040;-76
2021/05/10 15:26:05;;;;;;;3.28;1.50;;;;;;;;;;5092645;28;20399;-76
2021/05/10 15:28:31;;;;;;;4.60;1.42;;;;;;;;;;5091152;28;20021;-76
2021/05/10 15:30:57;;;;;;;2.47;1.40;;;;;;;;;;5092054;28;20443;-76
2021/05/10 15:33:24;;;;;;;4.78;1.50;;;;;;;;;;5091091;28;20472;-76
2021/05/10 15:35:50;;;;;;;3.85;1.50;;;;;;;;;;5092368;28;20032;-76
2021/05/10 15:38:16;;;;;;;4.18;1.85;;;;;;;;;;5092273;28;20016;-77
2021/05/10 15:40:42;;;;;;;2.85;1.10;;;;;;;;;;5091130;28;20020;-77
2021/05/10 15:43:09;;;;;;;3.80;1.77;;;;;;;;;;5092296;28;20036;-77
2021/05/10 15:45:35;;;;;;;2.65;1.65;;;;;;;;;;5090753;28;20069;-76
2021/05/10 15:48:01;;;;;;;6.90;1.60;;;;;;;;;;5091000;28;20024;-76
2021/05/10 15:50:27;;;;;;;2.25;1.20;;;;;;;;;;5095512;28;20081;-76
2021/05/10 15:52:54;;;;;;;1.80;1.27;;;;;;;;;;5094331;28;20050;-75
2021/05/10 15:55:22;;;;;;;1.50;1.38;;;;;;;;;;5094818;28;20368;-76
2021/05/10 15:57:48;;;;;;;3.80;1.25;;;;;;;;;;5096241;28;20024;-76
2021/05/10 16:00:15;;;;;;;2.67;1.40;;;;;;;;;;5095429;28;20515;-76
2021/05/10 16:02:41;;;;;;;2.47;1.20;;;;;;;;;;5094492;28;20395;-76
2021/05/10 16:05:09;;;;;;;18.25;4.45;;;;;;;;;;5094072;28;20024;-76
2021/05/10 16:07:35;;;;;;;5.90;1.77;;;;;;;;;;5095932;28;20022;-75
2021/05/10 16:10:02;;;;;;;3.10;1.83;;;;;;;;;;5095793;28;20026;-76
2021/05/10 16:12:28;;;;;;;3.30;1.33;;;;;;;;;;5095712;28;20026;-75
2021/05/10 16:14:56;;;;;;;11.55;2.03;;;;;;;;;;5094337;28;20035;-75
2021/05/10 16:17:22;;;;;;;5.05;1.63;;;;;;;;;;5094406;28;20024;-75
2021/05/10 16:19:48;;;;;;;3.17;1.65;;;;;;;;;;5094092;28;20024;-75
2021/05/10 16:22:15;;;;;;;4.43;1.65;;;;;;;;;;5095414;28;20028;-76
2021/05/10 16:24:41;;;;;;;8.00;1.90;;;;;;;;;;5095472;28;20065;-75
2021/05/10 16:27:08;;;;;;;3.45;1.73;;;;;;;;;;5095016;28;20119;-76
2021/05/10 16:29:35;;;;;;;5.10;1.75;;;;;;;;;;5095180;28;20024;-75
2021/05/10 16:32:02;;;;;;;3.78;1.73;;;;;;;;;;5095256;28;20095;-75
2021/05/10 16:34:28;;;;;;;5.18;1.65;;;;;;;;;;5094867;28;20080;-76
2021/05/10 16:36:54;;;;;;;2.20;1.45;;;;;;;;;;5095129;28;20020;-76
2021/05/10 16:39:20;;;;;;;5.38;2.00;;;;;;;;;;5094063;28;20063;-75
2021/05/10 16:41:46;;;;;;;4.97;2.05;;;;;;;;;;5094702;28;20028;-76
2021/05/10 16:44:13;;;;;;;5.30;2.08;;;;;;;;;;5094849;28;20031;-76
2021/05/10 16:46:39;;;;;;;4.00;2.47;;;;;;;;;;5093664;28;20029;-75
2021/05/10 16:49:05;;;;;;;8.57;3.03;;;;;;;;;;5093344;28;20507;-75
2021/05/10 16:51:32;;;;;;;7.45;3.35;;;;;;;;;;5093637;28;20024;-75
2021/05/10 16:53:58;;;;;;;13.05;3.35;;;;;;;;;;5095180;28;20074;-75
2021/05/10 16:56:24;;;;;;;6.78;3.17;;;;;;;;;;5092519;28;20092;-74
2021/05/10 16:58:51;;;;;;;7.10;3.45;;;;;;;;;;5093521;28;20032;-74
2021/05/10 17:01:19;;;;;;;4.72;2.78;;;;;;;;;;5094584;28;20012;-74
2021/05/10 17:03:45;;;;;;;4.25;2.38;;;;;;;;;;5094518;28;20028;-73
2021/05/10 17:06:11;;;;;;;6.18;3.55;;;;;;;;;;5094408;28;20099;-74
2021/05/10 17:08:38;;;;;;;8.65;3.30;;;;;;;;;;5094060;28;20035;-74
2021/05/10 17:11:04;;;;;;;6.25;2.72;;;;;;;;;;5094279;28;20016;-76
2021/05/10 17:13:32;;;;;;;4.68;2.58;;;;;;;;;;5093301;28;20026;-74
2021/05/10 17:15:59;;;;;;;5.13;2.10;;;;;;;;;;5094180;28;20115;-73
2021/05/10 17:18:25;;;;;;;4.07;1.88;;;;;;;;;;5094547;28;20024;-74
2021/05/10 17:20:51;;;;;;;4.55;2.33;;;;;;;;;;5094543;28;20039;-73
2021/05/10 17:23:17;;;;;;;5.32;1.92;;;;;;;;;;5093778;28;20503;-74
2021/05/10 17:25:44;;;;;;;7.53;2.50;;;;;;;;;;5093013;28;20048;-75
2021/05/10 17:28:10;;;;;;;3.58;2.17;;;;;;;;;;5094245;28;20031;-74
2021/05/10 17:30:36;;;;;;;4.88;2.53;;;;;;;;;;5093788;28;20024;-75
2021/05/10 17:33:02;;;;;;;6.65;2.20;;;;;;;;;;5093952;28;20016;-75
2021/05/10 17:35:28;;;;;;;8.23;1.98;;;;;;;;;;5094078;28;20020;-74
2021/05/10 17:37:57;;;;;;;4.25;2.30;;;;;;;;;;5093885;28;20048;-74
2021/05/10 17:40:23;;;;;;;4.70;2.38;;;;;;;;;;5092865;28;20035;-75
2021/05/10 17:42:50;;;;;;;4.53;2.20;;;;;;;;;;5093835;28;20069;-75
2021/05/10 17:45:17;;;;;;;3.90;2.20;;;;;;;;;;5093462;28;20035;-76
2021/05/10 17:47:43;;;;;;;4.28;2.35;;;;;;;;;;5093851;28;20026;-74
2021/05/10 17:51:31;;;;;;;6.97;2.17;;;;;;;;;;5109691;27;20333;-74